createdAt,value
2022-12-05T00:01:18.030Z,10.55
2022-12-05T00:03:45.664Z,10.07
2022-12-05T00:06:12.777Z,11.20
2022-12-05T00:08:39.499Z,10.27
2022-12-05T00:11:15.231Z,11.48
2022-12-05T00:13:43.102Z,10.70
2022-12-05T00:16:13.285Z,11.38
2022-12-05T00:18:40.204Z,11.13
2022-12-05T00:21:07.890Z,10.98
2022-12-05T00:23:34.577Z,10.93
2022-12-05T00:26:05.260Z,9.93
2022-12-05T00:28:33.541Z,10.52
2022-12-05T00:31:05.071Z,11.35
2022-12-05T00:33:32.035Z,11.13
2022-12-05T00:36:07.357Z,11.35
2022-12-05T00:38:34.102Z,12.50
2022-12-05T00:41:05.142Z,14.43
2022-12-05T00:43:32.481Z,14.88
2022-12-05T00:46:10.553Z,12.55
2022-12-05T00:48:37.438Z,11.43
2022-12-05T00:51:16.088Z,11.95
2022-12-05T00:53:43.792Z,12.15
2022-12-05T00:56:13.014Z,10.82
2022-12-05T00:58:40.057Z,12.98
2022-12-05T01:01:16.208Z,14.57
2022-12-05T01:03:44.176Z,13.98
2022-12-05T01:06:11.957Z,15.75
2022-12-05T01:08:38.816Z,11.18
2022-12-05T01:11:07.516Z,12.80
2022-12-05T01:13:34.522Z,9.90
2022-12-05T01:16:02.101Z,10.90
2022-12-05T01:18:29.660Z,10.85
2022-12-05T01:20:56.738Z,10.15
2022-12-05T01:23:23.894Z,9.93
2022-12-05T01:25:52.411Z,10.40
2022-12-05T01:28:19.631Z,9.43
2022-12-05T01:30:48.580Z,9.85
2022-12-05T01:33:15.941Z,10.50
2022-12-05T01:35:42.757Z,11.43
2022-12-05T01:38:11.516Z,10.30
2022-12-05T01:40:38.653Z,10.10
2022-12-05T01:43:14.972Z,10.05
2022-12-05T01:45:43.800Z,10.05
2022-12-05T01:48:32.628Z,8.98
2022-12-05T01:51:00.163Z,10.32
2022-12-05T01:53:27.265Z,9.52
2022-12-05T01:55:54.578Z,10.07
2022-12-05T01:58:21.956Z,9.90
2022-12-05T02:00:48.914Z,10.10
2022-12-05T02:03:18.751Z,10.30
2022-12-05T02:05:48.806Z,9.98
2022-12-05T02:08:15.680Z,11.10
2022-12-05T02:10:53.582Z,10.02
2022-12-05T02:13:56.809Z,10.82
2022-12-05T02:16:43.109Z,10.73
2022-12-05T02:19:38.727Z,10.43
2022-12-05T02:22:23.868Z,10.50
2022-12-05T02:27:34.082Z,9.27
2022-12-05T02:30:08.204Z,9.20
2022-12-05T02:32:44.162Z,8.95
2022-12-05T02:35:41.503Z,8.82
2022-12-05T02:38:40.640Z,8.73
2022-12-05T02:41:21.480Z,8.15
2022-12-05T02:44:02.109Z,8.57
2022-12-05T02:46:31.289Z,8.07
2022-12-05T02:49:04.555Z,8.10
2022-12-05T02:51:34.969Z,8.70
2022-12-05T02:54:06.627Z,8.10
2022-12-05T02:56:34.602Z,8.90
2022-12-05T02:59:01.482Z,8.60
2022-12-05T03:01:31.388Z,8.50
2022-12-05T03:04:00.496Z,8.95
2022-12-05T03:06:32.636Z,8.45
2022-12-05T03:09:01.188Z,8.82
2022-12-05T03:11:31.864Z,8.57
2022-12-05T03:14:01.304Z,8.68
2022-12-05T03:16:34.227Z,8.93
2022-12-05T03:19:16.221Z,9.00
2022-12-05T03:22:03.379Z,8.75
2022-12-05T03:24:30.872Z,10.38
2022-12-05T03:27:08.851Z,10.18
2022-12-05T03:29:48.512Z,9.55
2022-12-05T03:32:24.752Z,10.32
2022-12-05T03:35:09.354Z,10.07
2022-12-05T03:37:55.748Z,9.65
2022-12-05T03:40:52.833Z,9.43
2022-12-05T03:43:41.644Z,9.85
2022-12-05T03:46:30.519Z,9.48
2022-12-05T03:48:58.492Z,8.93
2022-12-05T03:51:35.502Z,10.02
2022-12-05T03:54:18.923Z,9.80
2022-12-05T03:56:51.485Z,8.88
2022-12-05T03:59:32.434Z,9.35
2022-12-05T04:02:01.300Z,9.10
2022-12-05T04:04:38.506Z,10.32
2022-12-05T04:07:07.299Z,9.13
2022-12-05T04:09:39.280Z,9.93
2022-12-05T04:12:10.670Z,8.73
2022-12-05T04:14:47.817Z,9.07
2022-12-05T04:17:33.059Z,9.02
2022-12-05T04:20:22.223Z,9.35
2022-12-05T04:22:49.537Z,8.70
2022-12-05T04:25:35.127Z,8.70
2022-12-05T04:28:07.626Z,9.10
2022-12-05T04:30:44.970Z,9.07
2022-12-05T04:33:28.784Z,8.32
2022-12-05T04:36:03.549Z,9.00
2022-12-05T04:41:03.516Z,8.98
2022-12-05T04:43:33.994Z,8.68
2022-12-05T04:46:01.554Z,9.32
2022-12-05T04:48:28.496Z,9.90
2022-12-05T04:50:56.346Z,9.65
2022-12-05T04:53:26.917Z,9.02
2022-12-05T04:55:56.060Z,9.35
2022-12-05T04:58:24.596Z,10.20
2022-12-05T05:01:11.739Z,8.60
2022-12-05T05:03:40.981Z,8.65
2022-12-05T05:06:08.194Z,8.80
2022-12-05T05:08:34.868Z,8.23
2022-12-05T05:11:12.300Z,9.00
2022-12-05T05:13:39.080Z,9.00
2022-12-05T05:16:06.270Z,9.57
2022-12-05T05:18:33.696Z,9.32
2022-12-05T05:21:00.366Z,9.55
2022-12-05T05:23:27.075Z,8.80
2022-12-05T05:25:55.118Z,9.02
2022-12-05T05:28:22.559Z,8.40
2022-12-05T05:30:49.624Z,8.13
2022-12-05T05:33:16.398Z,9.07
2022-12-05T05:35:43.220Z,8.82
2022-12-05T05:38:09.975Z,8.65
2022-12-05T05:40:37.501Z,7.93
2022-12-05T05:43:05.539Z,8.40
2022-12-05T05:45:32.640Z,8.15
2022-12-05T05:47:59.307Z,7.40
2022-12-05T05:50:26.081Z,8.98
2022-12-05T05:52:52.749Z,8.55
2022-12-05T05:55:19.973Z,8.98
2022-12-05T05:57:47.071Z,8.50
2022-12-05T06:00:14.685Z,8.27
2022-12-05T06:02:41.495Z,8.18
2022-12-05T06:05:08.777Z,7.30
2022-12-05T06:07:35.493Z,7.43
2022-12-05T06:10:02.366Z,7.20
2022-12-05T06:12:29.234Z,7.22
2022-12-05T06:14:56.001Z,7.00
2022-12-05T06:17:22.709Z,7.82
2022-12-05T06:19:49.396Z,8.25
2022-12-05T06:22:16.234Z,7.45
2022-12-05T06:24:42.963Z,7.78
2022-12-05T06:27:09.725Z,7.97
2022-12-05T06:29:36.607Z,6.97
2022-12-05T06:32:03.767Z,6.60
2022-12-05T06:34:32.574Z,6.53
2022-12-05T06:37:00.029Z,6.22
2022-12-05T06:39:26.843Z,6.20
2022-12-05T06:41:53.533Z,5.47
2022-12-05T06:44:21.883Z,6.00
2022-12-05T06:46:49.229Z,5.47
2022-12-05T06:49:16.361Z,5.88
2022-12-05T06:51:43.123Z,6.15
2022-12-05T06:54:12.407Z,6.28
2022-12-05T06:56:39.227Z,6.85
2022-12-05T06:59:06.452Z,7.53
2022-12-05T07:01:39.144Z,7.50
2022-12-05T07:04:15.575Z,7.50
2022-12-05T07:06:49.948Z,7.70
2022-12-05T07:09:44.970Z,8.02
2022-12-05T07:12:13.120Z,7.57
2022-12-05T07:14:47.703Z,7.85
2022-12-05T07:17:16.331Z,7.75
2022-12-05T07:19:43.132Z,7.90
2022-12-05T07:22:15.439Z,7.43
2022-12-05T07:24:43.190Z,6.97
2022-12-05T07:27:09.870Z,7.15
2022-12-05T07:29:36.681Z,7.45
2022-12-05T07:32:03.947Z,6.68
2022-12-05T07:34:30.738Z,6.78
2022-12-05T07:36:57.413Z,7.50
2022-12-05T07:39:24.109Z,6.75
2022-12-05T07:41:50.869Z,7.68
2022-12-05T07:44:17.886Z,7.03
2022-12-05T07:46:44.692Z,7.18
2022-12-05T07:49:11.461Z,7.07
2022-12-05T07:51:38.853Z,7.57
2022-12-05T07:54:06.760Z,6.95
2022-12-05T07:56:33.595Z,7.30
2022-12-05T07:59:00.396Z,7.25
2022-12-05T08:01:29.715Z,7.03
2022-12-05T08:03:58.362Z,7.78
2022-12-05T08:06:30.759Z,7.75
2022-12-05T08:08:58.081Z,7.45
2022-12-05T08:11:35.193Z,7.05
2022-12-05T08:14:04.707Z,6.43
2022-12-05T08:16:32.309Z,6.82
2022-12-05T08:19:01.351Z,6.82
2022-12-05T08:21:28.916Z,7.30
2022-12-05T08:23:55.809Z,7.28
2022-12-05T08:26:27.686Z,6.38
2022-12-05T08:29:03.521Z,6.70
2022-12-05T08:31:32.570Z,7.50
2022-12-05T08:34:00.097Z,9.23
2022-12-05T08:36:31.207Z,10.30
2022-12-05T08:38:59.902Z,10.20
2022-12-05T08:41:29.864Z,13.27
2022-12-05T08:43:58.042Z,12.23
2022-12-05T08:46:25.122Z,11.10
2022-12-05T08:48:52.051Z,8.82
2022-12-05T08:51:18.766Z,9.27
2022-12-05T08:53:45.498Z,9.07
2022-12-05T08:56:13.114Z,7.72
2022-12-05T08:58:40.628Z,6.10
2022-12-05T09:01:15.481Z,6.57
2022-12-05T09:03:47.787Z,6.95
2022-12-05T09:06:20.262Z,5.95
2022-12-05T09:08:47.246Z,5.57
2022-12-05T09:11:19.895Z,5.53
2022-12-05T09:13:47.703Z,5.32
2022-12-05T09:16:20.972Z,5.15
2022-12-05T09:18:49.295Z,5.00
2022-12-05T09:21:19.418Z,5.30
2022-12-05T09:23:46.154Z,5.03
2022-12-05T09:26:15.674Z,6.15
2022-12-05T09:28:43.112Z,6.20
2022-12-05T09:31:15.923Z,6.97
2022-12-05T09:33:42.946Z,7.95
2022-12-05T09:36:17.651Z,7.95
2022-12-05T09:42:03.254Z,6.63
2022-12-05T09:45:05.839Z,6.70
2022-12-05T09:47:53.378Z,5.88
2022-12-05T09:50:24.306Z,6.53
2022-12-05T09:52:56.318Z,8.00
2022-12-05T09:55:23.154Z,7.40
2022-12-05T09:57:52.682Z,9.55
2022-12-05T10:00:19.787Z,6.55
2022-12-05T10:03:03.104Z,6.03
2022-12-05T10:05:52.470Z,6.03
2022-12-05T10:08:30.554Z,6.47
2022-12-05T10:11:02.424Z,5.72
2022-12-05T10:13:46.153Z,5.40
2022-12-05T10:16:18.809Z,5.43
2022-12-05T10:18:53.471Z,5.47
2022-12-05T10:21:48.562Z,6.35
2022-12-05T10:24:29.916Z,6.07
2022-12-05T10:27:01.612Z,5.80
2022-12-05T10:29:52.812Z,6.22
2022-12-05T10:32:28.862Z,5.38
2022-12-05T10:35:06.491Z,6.22
2022-12-05T10:37:33.191Z,5.60
2022-12-05T10:39:59.972Z,5.32
2022-12-05T10:42:30.043Z,4.88
2022-12-05T10:45:05.515Z,5.38
2022-12-05T10:47:32.751Z,5.13
2022-12-05T10:50:07.114Z,5.00
2022-12-05T10:52:35.234Z,5.18
2022-12-05T10:55:04.822Z,4.88
2022-12-05T10:57:31.541Z,5.30
2022-12-05T11:00:09.626Z,5.15
2022-12-05T11:02:38.103Z,5.80
2022-12-05T11:05:05.322Z,5.90
2022-12-05T11:07:48.365Z,5.13
2022-12-05T11:10:32.767Z,5.30
2022-12-05T11:13:00.660Z,4.80
2022-12-05T11:15:29.814Z,5.38
2022-12-05T11:17:59.426Z,5.13
2022-12-05T11:20:26.072Z,5.38
2022-12-05T11:22:56.228Z,4.80
2022-12-05T11:25:34.487Z,5.00
2022-12-05T11:28:21.205Z,4.45
2022-12-05T11:31:16.852Z,4.68
2022-12-05T11:33:43.840Z,4.90
2022-12-05T11:36:24.212Z,4.85
2022-12-05T11:38:51.375Z,4.55
2022-12-05T11:41:41.621Z,4.45
2022-12-05T11:44:27.182Z,4.95
2022-12-05T11:46:56.690Z,4.90
2022-12-05T11:49:47.907Z,4.65
2022-12-05T11:52:51.950Z,5.00
2022-12-05T11:55:25.749Z,6.97
2022-12-05T11:58:43.038Z,5.30
2022-12-05T12:01:28.456Z,5.32
2022-12-05T12:04:13.711Z,4.38
2022-12-05T12:07:03.147Z,3.90
2022-12-05T12:10:12.002Z,4.00
2022-12-05T12:13:00.891Z,3.80
2022-12-05T12:15:46.602Z,4.05
2022-12-05T12:18:36.156Z,3.83
2022-12-05T12:21:18.548Z,3.35
2022-12-05T12:23:57.044Z,3.42
2022-12-05T12:26:55.936Z,3.45
2022-12-05T12:29:36.872Z,4.20
2022-12-05T12:32:34.557Z,8.32
2022-12-05T12:35:33.074Z,4.05
2022-12-05T12:38:15.160Z,5.65
2022-12-05T12:40:58.281Z,2.95
2022-12-05T12:43:58.478Z,4.00
2022-12-05T12:46:36.678Z,4.18
2022-12-05T12:49:23.130Z,5.07
2022-12-05T12:51:54.318Z,4.88
2022-12-05T12:55:03.975Z,5.90
2022-12-05T12:57:58.832Z,6.03
2022-12-05T13:00:59.380Z,6.30
2022-12-05T13:03:36.507Z,5.88
2022-12-05T13:06:14.889Z,7.35
2022-12-05T13:08:51.019Z,8.15
2022-12-05T13:11:18.659Z,8.70
2022-12-05T13:13:54.359Z,9.38
2022-12-05T13:16:35.467Z,10.30
2022-12-05T13:19:03.114Z,10.23
2022-12-05T13:21:30.068Z,8.20
2022-12-05T13:24:03.236Z,8.50
2022-12-05T13:26:31.400Z,8.05
2022-12-05T13:29:00.993Z,7.45
2022-12-05T13:31:41.983Z,7.32
2022-12-05T13:34:41.510Z,7.07
2022-12-05T13:37:49.538Z,7.45
2022-12-05T13:40:47.276Z,8.02
2022-12-05T13:43:18.593Z,7.80
2022-12-05T13:46:00.795Z,7.53
2022-12-05T13:48:28.844Z,6.93
2022-12-05T13:51:10.339Z,7.10
2022-12-05T13:53:42.587Z,7.22
2022-12-05T13:56:12.415Z,6.80
2022-12-05T13:58:48.764Z,6.85
2022-12-05T14:01:28.166Z,6.13
2022-12-05T14:03:57.608Z,7.65
2022-12-05T14:06:38.028Z,7.22
2022-12-05T14:09:28.751Z,6.60
2022-12-05T14:12:10.929Z,6.20
2022-12-05T14:14:56.041Z,5.60
2022-12-05T14:20:12.889Z,6.00
2022-12-05T14:22:49.046Z,7.75
2022-12-05T14:25:59.005Z,6.60
2022-12-05T14:28:36.805Z,5.72
2022-12-05T14:31:18.871Z,6.35
2022-12-05T14:33:45.563Z,5.63
2022-12-05T14:36:17.955Z,5.28
2022-12-05T14:38:44.789Z,4.80
2022-12-05T14:41:22.031Z,5.15
2022-12-05T14:43:53.815Z,5.28
2022-12-05T14:46:31.659Z,4.95
2022-12-05T14:48:58.822Z,5.43
2022-12-05T14:51:31.788Z,4.40
2022-12-05T14:54:10.395Z,4.88
2022-12-05T14:56:45.894Z,4.75
2022-12-05T14:59:32.107Z,4.60
2022-12-05T15:02:01.143Z,4.53
2022-12-05T15:04:55.563Z,4.38
2022-12-05T15:07:38.598Z,5.03
2022-12-05T15:10:25.757Z,4.63
2022-12-05T15:12:58.630Z,4.43
2022-12-05T15:15:45.720Z,5.75
2022-12-05T15:18:28.967Z,4.72
2022-12-05T15:21:08.064Z,5.10
2022-12-05T15:23:43.580Z,5.22
2022-12-05T15:29:10.165Z,4.53
2022-12-05T15:31:48.426Z,4.22
2022-12-05T15:34:25.133Z,4.75
2022-12-05T15:36:57.856Z,5.32
2022-12-05T15:39:26.372Z,6.10
2022-12-05T15:41:53.661Z,6.25
2022-12-05T15:44:26.881Z,5.95
2022-12-05T15:46:56.418Z,5.78
2022-12-05T15:49:25.234Z,6.38
2022-12-05T15:51:56.605Z,5.90
2022-12-05T15:54:29.898Z,6.57
2022-12-05T15:57:01.555Z,6.90
2022-12-05T15:59:40.432Z,6.97
2022-12-05T16:02:33.456Z,5.38
2022-12-05T16:05:00.387Z,5.00
2022-12-05T16:07:29.697Z,5.15
2022-12-05T16:10:01.097Z,7.43
2022-12-05T16:12:33.441Z,15.52
2022-12-05T16:15:08.424Z,13.23
2022-12-05T16:17:42.473Z,9.80
2022-12-05T16:20:24.997Z,6.38
2022-12-05T16:22:54.513Z,5.97
2022-12-05T16:25:30.861Z,4.93
2022-12-05T16:27:59.698Z,6.38
2022-12-05T16:30:26.918Z,6.10
2022-12-05T16:33:14.717Z,6.20
2022-12-05T16:35:43.461Z,6.47
2022-12-05T16:38:26.937Z,6.88
2022-12-05T16:40:56.933Z,6.40
2022-12-05T16:43:33.136Z,5.82
2022-12-05T16:46:28.411Z,5.60
2022-12-05T16:49:18.982Z,4.97
2022-12-05T16:51:54.770Z,5.03
2022-12-05T16:54:21.467Z,13.15
2022-12-05T16:56:48.153Z,9.20
2022-12-05T16:59:22.630Z,6.40
2022-12-05T17:01:49.391Z,6.25
2022-12-05T17:04:16.203Z,8.02
2022-12-05T17:06:42.968Z,9.95
2022-12-05T17:09:09.824Z,9.70
2022-12-05T17:11:38.008Z,6.65
2022-12-05T17:14:04.786Z,7.60
2022-12-05T17:16:31.586Z,9.02
2022-12-05T17:18:58.440Z,10.35
2022-12-05T17:21:31.100Z,8.40
2022-12-05T17:23:58.165Z,7.15
2022-12-05T17:26:25.067Z,6.75
2022-12-05T17:28:51.885Z,5.78
2022-12-05T17:31:20.907Z,6.15
2022-12-05T17:33:48.716Z,6.35
2022-12-05T17:36:16.537Z,8.98
2022-12-05T17:38:44.104Z,8.20
2022-12-05T17:41:23.129Z,6.57
2022-12-05T17:43:51.282Z,6.85
2022-12-05T17:46:20.535Z,7.75
2022-12-05T17:48:48.077Z,7.68
2022-12-05T17:51:14.866Z,9.25
2022-12-05T17:53:42.545Z,9.13
2022-12-05T17:56:09.516Z,10.10
2022-12-05T17:58:36.284Z,8.00
2022-12-05T18:01:03.981Z,11.00
2022-12-05T18:03:30.838Z,10.05
2022-12-05T18:05:57.909Z,11.55
2022-12-05T18:08:24.730Z,12.43
2022-12-05T18:10:52.031Z,12.13
2022-12-05T18:13:18.788Z,10.00
2022-12-05T18:15:48.042Z,9.77
2022-12-05T18:18:16.326Z,9.23
2022-12-05T18:20:43.591Z,8.45
2022-12-05T18:23:10.723Z,8.05
2022-12-05T18:25:37.457Z,7.20
2022-12-05T18:28:04.168Z,6.75
2022-12-05T18:30:30.993Z,7.30
2022-12-05T18:32:57.720Z,8.18
2022-12-05T18:35:40.648Z,7.70
2022-12-05T18:38:08.813Z,8.27
2022-12-05T18:40:35.614Z,8.50
2022-12-05T18:43:02.426Z,9.45
2022-12-05T18:45:29.171Z,9.40
2022-12-05T18:48:09.575Z,9.65
2022-12-05T18:50:42.673Z,9.23
2022-12-05T18:53:09.562Z,10.27
2022-12-05T18:58:24.308Z,12.48
2022-12-05T19:00:51.162Z,9.85
2022-12-05T19:03:17.950Z,8.50
2022-12-05T19:05:44.657Z,7.47
2022-12-05T19:08:11.412Z,8.13
2022-12-05T19:10:38.520Z,7.57
2022-12-05T19:13:05.177Z,8.00
2022-12-05T19:15:31.834Z,8.05
2022-12-05T19:17:58.495Z,7.78
2022-12-05T19:20:25.228Z,7.85
2022-12-05T19:22:54.177Z,6.90
2022-12-05T19:25:24.424Z,8.05
2022-12-05T19:27:51.128Z,7.55
2022-12-05T19:30:17.904Z,6.78
2022-12-05T19:32:44.670Z,5.95
2022-12-05T19:35:11.365Z,5.82
2022-12-05T19:37:38.336Z,5.95
2022-12-05T19:40:06.134Z,5.85
2022-12-05T19:42:33.133Z,5.85
2022-12-05T19:45:04.629Z,6.28
2022-12-05T19:47:34.596Z,5.30
2022-12-05T19:50:01.448Z,6.18
2022-12-05T19:52:28.322Z,6.32
2022-12-05T19:54:55.053Z,6.00
2022-12-05T19:57:22.698Z,5.85
2022-12-05T19:59:49.466Z,5.07
2022-12-05T20:02:16.234Z,4.75
2022-12-05T20:04:43.219Z,5.63
2022-12-05T20:07:09.987Z,5.10
2022-12-05T20:09:37.557Z,4.63
2022-12-05T20:12:04.696Z,4.53
2022-12-05T20:14:31.432Z,4.55
2022-12-05T20:16:58.268Z,4.47
2022-12-05T20:19:25.045Z,4.82
2022-12-05T20:21:51.846Z,4.40
2022-12-05T20:24:18.564Z,4.00
2022-12-05T20:26:45.365Z,4.25
2022-12-05T20:29:12.132Z,4.03
2022-12-05T20:31:41.042Z,3.80
2022-12-05T20:34:10.510Z,3.60
2022-12-05T20:36:37.515Z,3.90
2022-12-05T20:39:07.262Z,3.88
2022-12-05T20:41:34.721Z,3.88
2022-12-05T20:44:03.261Z,3.95
2022-12-05T20:46:31.701Z,3.88
2022-12-05T20:48:59.200Z,3.60
2022-12-05T20:51:31.140Z,3.38
2022-12-05T20:53:58.956Z,3.70
2022-12-05T20:56:28.341Z,3.05
2022-12-05T20:58:57.493Z,2.83
2022-12-05T21:01:25.683Z,2.80
2022-12-05T21:03:53.355Z,2.65
2022-12-05T21:06:22.614Z,3.03
2022-12-05T21:08:50.263Z,3.22
2022-12-05T21:11:17.584Z,3.15
2022-12-05T21:13:44.340Z,3.10
2022-12-05T21:16:17.407Z,2.80
2022-12-05T21:18:44.785Z,2.60
2022-12-05T21:21:20.018Z,2.95
2022-12-05T21:23:51.120Z,2.33
2022-12-05T21:26:18.385Z,2.33
2022-12-05T21:28:45.981Z,2.50
2022-12-05T21:31:15.898Z,2.30
2022-12-05T21:33:46.151Z,2.40
2022-12-05T21:36:12.848Z,2.35
2022-12-05T21:38:39.826Z,2.50
2022-12-05T21:41:07.710Z,2.50
2022-12-05T21:43:35.295Z,2.05
2022-12-05T21:46:02.280Z,2.58
2022-12-05T21:48:29.052Z,2.63
2022-12-05T21:50:56.319Z,2.90
2022-12-05T21:53:23.277Z,3.10
2022-12-05T21:56:00.274Z,3.65
2022-12-05T21:58:27.044Z,3.58
2022-12-05T22:00:54.124Z,3.40
2022-12-05T22:03:20.834Z,3.80
2022-12-05T22:05:48.667Z,3.95
2022-12-05T22:08:15.834Z,4.00
2022-12-05T22:10:42.570Z,4.20
2022-12-05T22:13:09.263Z,4.60
2022-12-05T22:15:36.030Z,5.00
2022-12-05T22:18:02.752Z,5.15
2022-12-05T22:20:29.470Z,5.43
2022-12-05T22:22:56.266Z,5.28
2022-12-05T22:25:22.943Z,5.88
2022-12-05T22:27:49.625Z,5.78
2022-12-05T22:30:16.557Z,5.70
2022-12-05T22:32:43.302Z,6.15
2022-12-05T22:35:10.008Z,6.20
2022-12-05T22:37:36.666Z,7.05
2022-12-05T22:40:03.734Z,6.70
2022-12-05T22:42:30.404Z,6.20
2022-12-05T22:44:57.114Z,6.03
2022-12-05T22:47:23.921Z,6.03
2022-12-05T22:49:50.764Z,6.28
2022-12-05T22:52:17.451Z,6.38
2022-12-05T22:54:44.186Z,5.82
2022-12-05T22:57:11.350Z,6.05
2022-12-05T22:59:38.044Z,5.90
2022-12-05T23:02:04.740Z,5.55
2022-12-05T23:04:31.529Z,6.00
2022-12-05T23:06:58.670Z,6.15
2022-12-05T23:09:25.441Z,5.82
2022-12-05T23:11:52.399Z,6.13
2022-12-05T23:14:19.275Z,5.90
2022-12-05T23:16:46.051Z,5.10
2022-12-05T23:19:12.871Z,5.25
2022-12-05T23:21:40.687Z,5.35
2022-12-05T23:24:09.877Z,4.82
2022-12-05T23:26:39.744Z,4.70
2022-12-05T23:29:06.839Z,4.20
2022-12-05T23:31:33.995Z,4.50
2022-12-05T23:34:03.495Z,4.68
2022-12-05T23:36:32.680Z,4.38
2022-12-05T23:39:00.282Z,4.03
2022-12-05T23:41:27.489Z,4.38
2022-12-05T23:43:55.168Z,3.92
2022-12-05T23:46:24.317Z,4.50
2022-12-05T23:48:51.998Z,4.18
2022-12-05T23:51:21.673Z,3.42
2022-12-05T23:53:53.454Z,3.47
2022-12-05T23:56:23.872Z,3.78
2022-12-05T23:58:51.245Z,3.70
